createdAt,value
2022-09-03T00:00:56.504Z,0.00
2022-09-03T00:01:56.648Z,0.00
2022-09-03T00:02:56.806Z,0.00
2022-09-03T00:03:57.016Z,0.00
2022-09-03T00:04:57.161Z,0.00
2022-09-03T00:05:57.317Z,0.00
2022-09-03T00:06:57.583Z,0.00
2022-09-03T00:07:57.695Z,0.00
2022-09-03T00:08:57.942Z,0.00
2022-09-03T00:09:58.083Z,0.00
2022-09-03T00:10:58.241Z,0.00
2022-09-03T00:11:58.503Z,0.00
2022-09-03T00:12:58.605Z,0.00
2022-09-03T00:13:58.802Z,0.00
2022-09-03T00:14:59.010Z,0.00
2022-09-03T00:15:59.161Z,0.00
2022-09-03T00:16:59.272Z,0.00
2022-09-03T00:17:59.552Z,0.00
2022-09-03T00:18:59.731Z,0.00
2022-09-03T00:19:59.817Z,0.00
2022-09-03T00:21:00.024Z,0.00
2022-09-03T00:22:00.161Z,0.00
2022-09-03T00:23:00.302Z,0.00
2022-09-03T00:24:00.531Z,0.00
2022-09-03T00:25:00.726Z,0.00
2022-09-03T00:26:00.890Z,0.00
2022-09-03T00:27:01.022Z,0.00
2022-09-03T00:28:01.274Z,0.00
2022-09-03T00:29:01.422Z,0.00
2022-09-03T00:30:01.572Z,0.00
2022-09-03T00:31:01.909Z,0.00
2022-09-03T00:32:01.922Z,0.00
2022-09-03T00:33:02.082Z,0.00
2022-09-03T00:34:02.397Z,0.00
2022-09-03T00:35:02.484Z,0.00
2022-09-03T00:36:02.623Z,0.00
2022-09-03T00:37:02.883Z,0.00
2022-09-03T00:38:02.982Z,0.00
2022-09-03T00:39:03.152Z,0.00
2022-09-03T00:40:03.489Z,0.00
2022-09-03T00:41:03.477Z,0.00
2022-09-03T00:42:03.642Z,0.00
2022-09-03T00:43:03.902Z,0.00
2022-09-03T00:44:04.041Z,0.00
2022-09-03T00:45:04.202Z,0.00
2022-09-03T00:46:04.438Z,0.00
2022-09-03T00:47:04.595Z,0.00
2022-09-03T00:48:04.733Z,0.00
2022-09-03T00:49:04.941Z,0.00
2022-09-03T00:50:05.092Z,0.00
2022-09-03T00:51:05.273Z,0.00
2022-09-03T00:52:05.477Z,0.00
2022-09-03T00:53:05.582Z,0.00
2022-09-03T00:54:05.802Z,0.00
2022-09-03T00:55:06.011Z,0.00
2022-09-03T00:56:06.122Z,0.00
2022-09-03T00:57:06.272Z,0.00
2022-09-03T00:58:06.472Z,0.00
2022-09-03T00:59:06.662Z,0.00
2022-09-03T01:00:06.887Z,0.00
2022-09-03T01:01:07.012Z,0.00
2022-09-03T01:02:07.330Z,0.00
2022-09-03T01:03:07.397Z,0.00
2022-09-03T01:04:07.601Z,0.00
2022-09-03T01:05:07.824Z,0.00
2022-09-03T01:06:07.934Z,0.00
2022-09-03T01:07:08.114Z,0.00
2022-09-03T01:08:08.343Z,0.00
2022-09-03T01:09:08.463Z,0.00
2022-09-03T01:10:08.612Z,0.00
2022-09-03T01:11:08.897Z,0.00
2022-09-03T01:12:09.006Z,0.00
2022-09-03T01:13:09.162Z,0.00
2022-09-03T01:14:09.465Z,0.00
2022-09-03T01:15:09.561Z,0.00
2022-09-03T01:16:09.810Z,0.00
2022-09-03T01:17:09.944Z,0.00
2022-09-03T01:18:10.106Z,0.00
2022-09-03T01:19:10.273Z,0.00
2022-09-03T01:20:10.412Z,0.00
2022-09-03T01:21:10.583Z,0.00
2022-09-03T01:22:10.756Z,0.00
2022-09-03T01:23:10.902Z,0.00
2022-09-03T01:24:11.085Z,0.00
2022-09-03T01:25:11.242Z,0.00
2022-09-03T01:26:11.457Z,0.00
2022-09-03T01:27:11.613Z,0.00
2022-09-03T01:28:11.764Z,0.00
2022-09-03T01:29:11.965Z,0.00
2022-09-03T01:30:12.124Z,0.00
2022-09-03T01:31:12.399Z,0.00
2022-09-03T01:32:12.499Z,0.00
2022-09-03T01:33:12.654Z,0.00
2022-09-03T01:34:12.905Z,0.00
2022-09-03T01:35:13.011Z,0.00
2022-09-03T01:36:13.152Z,0.00
2022-09-03T01:37:13.353Z,0.00
2022-09-03T01:38:13.557Z,0.00
2022-09-03T01:39:13.684Z,0.00
2022-09-03T01:40:13.842Z,0.00
2022-09-03T01:41:14.114Z,0.00
2022-09-03T01:42:14.213Z,0.00
2022-09-03T01:43:14.418Z,0.00
2022-09-03T01:44:14.675Z,0.00
2022-09-03T01:45:14.748Z,0.00
2022-09-03T01:46:15.307Z,0.00
2022-09-03T01:47:15.178Z,0.00
2022-09-03T01:48:15.315Z,0.00
2022-09-03T01:49:15.461Z,0.00
2022-09-03T01:50:15.623Z,0.00
2022-09-03T01:51:15.802Z,0.00
2022-09-03T01:52:15.955Z,0.00
2022-09-03T01:53:16.170Z,0.00
2022-09-03T01:54:20.711Z,0.00
2022-09-03T01:55:17.508Z,0.00
2022-09-03T01:56:16.683Z,0.00
2022-09-03T01:57:34.489Z,0.00
2022-09-03T01:58:18.109Z,0.00
2022-09-03T01:59:17.233Z,0.00
2022-09-03T02:00:17.432Z,0.00
2022-09-03T02:01:18.184Z,0.00
2022-09-03T02:02:17.894Z,0.00
2022-09-03T02:03:17.963Z,0.00
2022-09-03T02:04:18.168Z,0.00
2022-09-03T02:05:18.333Z,0.00
2022-09-03T02:06:18.492Z,0.00
2022-09-03T02:07:18.661Z,0.00
2022-09-03T02:08:18.912Z,0.00
2022-09-03T02:09:19.023Z,0.00
2022-09-03T02:10:19.183Z,0.00
2022-09-03T02:11:19.346Z,0.00
2022-09-03T02:12:19.512Z,0.00
2022-09-03T02:13:19.781Z,0.00
2022-09-03T02:14:19.871Z,0.00
2022-09-03T02:15:20.020Z,0.00
2022-09-03T02:16:20.355Z,0.00
2022-09-03T02:17:20.365Z,0.00
2022-09-03T02:18:20.596Z,0.00
2022-09-03T02:19:20.755Z,0.00
2022-09-03T02:20:20.863Z,0.00
2022-09-03T02:21:21.054Z,0.00
2022-09-03T02:22:21.270Z,0.00
2022-09-03T02:23:24.773Z,0.00
2022-09-03T02:24:22.553Z,0.00
2022-09-03T02:25:21.814Z,0.00
2022-09-03T02:26:21.934Z,0.00
2022-09-03T02:27:22.113Z,0.00
2022-09-03T02:28:22.365Z,0.00
2022-09-03T02:29:22.434Z,0.00
2022-09-03T02:30:22.593Z,0.00
2022-09-03T02:31:22.831Z,0.00
2022-09-03T02:32:22.977Z,0.00
2022-09-03T02:33:23.156Z,0.00
2022-09-03T02:34:23.343Z,0.00
2022-09-03T02:35:23.502Z,0.00
2022-09-03T02:36:23.621Z,0.00
2022-09-03T02:37:23.812Z,0.00
2022-09-03T02:38:24.131Z,0.00
2022-09-03T02:39:24.201Z,0.00
2022-09-03T02:40:24.333Z,0.00
2022-09-03T02:41:24.564Z,0.00
2022-09-03T02:42:24.681Z,0.00
2022-09-03T02:43:26.083Z,0.00
2022-09-03T02:44:25.044Z,0.00
2022-09-03T02:45:25.223Z,0.00
2022-09-03T02:46:25.471Z,0.00
2022-09-03T02:47:25.647Z,0.00
2022-09-03T02:48:25.908Z,0.00
2022-09-03T02:49:26.007Z,0.00
2022-09-03T02:50:26.104Z,0.00
2022-09-03T02:51:26.263Z,0.00
2022-09-03T02:52:26.444Z,0.00
2022-09-03T02:53:26.645Z,0.00
2022-09-03T02:54:26.802Z,0.00
2022-09-03T02:55:26.993Z,0.00
2022-09-03T02:56:27.185Z,0.00
2022-09-03T02:57:27.832Z,0.00
2022-09-03T02:58:27.534Z,0.00
2022-09-03T02:59:27.782Z,0.00
2022-09-03T03:00:27.848Z,0.00
2022-09-03T03:01:28.065Z,0.00
2022-09-03T03:02:28.307Z,0.00
2022-09-03T03:03:28.395Z,0.00
2022-09-03T03:04:28.551Z,0.00
2022-09-03T03:05:28.837Z,0.00
2022-09-03T03:06:28.939Z,0.00
2022-09-03T03:07:29.093Z,0.00
2022-09-03T03:08:29.319Z,0.00
2022-09-03T03:09:29.458Z,0.00
2022-09-03T03:10:29.608Z,0.00
2022-09-03T03:11:29.833Z,0.00
2022-09-03T03:12:29.996Z,0.00
2022-09-03T03:13:30.135Z,0.00
2022-09-03T03:14:30.303Z,0.00
2022-09-03T03:15:30.542Z,0.00
2022-09-03T03:16:30.680Z,0.00
2022-09-03T03:17:30.843Z,0.00
2022-09-03T03:18:31.014Z,0.00
2022-09-03T03:19:31.173Z,0.00
2022-09-03T03:20:31.357Z,0.00
2022-09-03T03:21:31.631Z,0.00
2022-09-03T03:22:31.735Z,0.00
2022-09-03T03:23:31.934Z,0.00
2022-09-03T03:24:32.162Z,0.00
2022-09-03T03:25:32.298Z,0.00
2022-09-03T03:26:32.442Z,0.00
2022-09-03T03:27:32.653Z,0.00
2022-09-03T03:28:32.873Z,0.00
2022-09-03T03:29:32.994Z,0.00
2022-09-03T03:30:33.225Z,0.00
2022-09-03T03:31:33.415Z,0.00
2022-09-03T03:32:33.523Z,0.00
2022-09-03T03:33:33.731Z,0.00
2022-09-03T03:34:33.950Z,0.00
2022-09-03T03:35:34.074Z,0.00
2022-09-03T03:36:34.239Z,0.00
2022-09-03T03:37:34.491Z,0.00
2022-09-03T03:38:34.566Z,0.00
2022-09-03T03:39:34.741Z,0.00
2022-09-03T03:40:34.971Z,0.00
2022-09-03T03:41:35.080Z,0.00
2022-09-03T03:42:35.252Z,0.00
2022-09-03T03:43:35.550Z,0.00
2022-09-03T03:44:35.650Z,0.00
2022-09-03T03:45:35.893Z,0.00
2022-09-03T03:46:36.012Z,0.00
2022-09-03T03:47:36.176Z,4.00
2022-09-03T03:48:36.347Z,0.00
2022-09-03T03:49:36.489Z,0.00
2022-09-03T03:50:36.711Z,4.00
2022-09-03T03:51:36.822Z,0.00
2022-09-03T03:52:37.009Z,4.00
2022-09-03T03:53:37.252Z,4.00
2022-09-03T03:54:37.323Z,4.00
2022-09-03T03:55:37.514Z,4.00
2022-09-03T03:56:37.742Z,8.00
2022-09-03T03:57:37.855Z,8.00
2022-09-03T03:58:38.044Z,12.00
2022-09-03T03:59:38.282Z,12.00
2022-09-03T04:00:38.396Z,12.00
2022-09-03T04:01:38.590Z,12.00
2022-09-03T04:02:39.349Z,16.00
2022-09-03T04:03:38.944Z,16.00
2022-09-03T04:04:39.085Z,24.00
2022-09-03T04:05:46.160Z,28.00
2022-09-03T04:06:40.494Z,28.00
2022-09-03T04:07:39.622Z,32.00
2022-09-03T04:08:39.762Z,36.00
2022-09-03T04:09:40.034Z,40.00
2022-09-03T04:10:40.113Z,48.00
2022-09-03T04:11:40.292Z,52.00
2022-09-03T04:12:40.582Z,64.00
2022-09-03T04:13:40.643Z,68.00
2022-09-03T04:14:40.821Z,80.00
2022-09-03T04:15:41.082Z,92.00
2022-09-03T04:16:41.217Z,104.00
2022-09-03T04:17:41.374Z,116.00
2022-09-03T04:18:41.621Z,128.00
2022-09-03T04:19:41.747Z,140.00
2022-09-03T04:20:41.912Z,152.00
2022-09-03T04:21:42.159Z,168.00
2022-09-03T04:22:42.346Z,180.00
2022-09-03T04:23:42.514Z,192.00
2022-09-03T04:24:42.653Z,208.00
2022-09-03T04:25:42.885Z,224.00
2022-09-03T04:26:42.993Z,244.00
2022-09-03T04:27:43.192Z,264.00
2022-09-03T04:28:43.436Z,284.00
2022-09-03T04:29:43.531Z,308.00
2022-09-03T04:30:43.790Z,328.00
2022-09-03T04:31:43.872Z,352.00
2022-09-03T04:32:44.053Z,380.00
2022-09-03T04:33:44.262Z,412.00
2022-09-03T04:34:44.413Z,444.00
2022-09-03T04:35:44.664Z,476.00
2022-09-03T04:36:44.752Z,508.00
2022-09-03T04:37:44.974Z,540.00
2022-09-03T04:38:45.192Z,572.00
2022-09-03T04:39:45.329Z,608.00
2022-09-03T04:40:45.478Z,636.00
2022-09-03T04:41:45.702Z,660.00
2022-09-03T04:42:45.815Z,684.00
2022-09-03T04:43:45.997Z,712.00
2022-09-03T04:44:47.210Z,736.00
2022-09-03T04:45:46.417Z,756.00
2022-09-03T04:46:46.504Z,800.00
2022-09-03T04:47:46.725Z,828.00
2022-09-03T04:48:46.927Z,848.00
2022-09-03T04:49:47.058Z,856.00
2022-09-03T04:50:47.234Z,852.00
2022-09-03T04:51:47.480Z,872.00
2022-09-03T04:52:47.612Z,900.00
2022-09-03T04:53:47.792Z,936.00
2022-09-03T04:54:48.068Z,964.00
2022-09-03T04:55:48.169Z,1000.00
2022-09-03T04:56:48.336Z,1056.00
2022-09-03T04:57:48.609Z,1088.00
2022-09-03T04:58:49.321Z,1132.00
2022-09-03T04:59:48.850Z,1184.00
2022-09-03T05:00:49.105Z,1232.00
2022-09-03T05:01:49.237Z,1272.00
2022-09-03T05:02:49.411Z,1292.00
2022-09-03T05:03:49.564Z,1340.00
2022-09-03T05:04:49.780Z,1396.00
2022-09-03T05:05:52.501Z,1460.00
2022-09-03T05:06:50.082Z,1488.00
2022-09-03T05:07:50.330Z,1528.00
2022-09-03T05:08:50.427Z,1576.00
2022-09-03T05:09:50.735Z,1656.00
2022-09-03T05:10:50.764Z,1764.00
2022-09-03T05:11:50.936Z,1808.00
2022-09-03T05:12:51.221Z,1824.00
2022-09-03T05:13:51.302Z,1856.00
2022-09-03T05:14:51.489Z,1912.00
2022-09-03T05:15:51.696Z,1992.00
2022-09-03T05:16:52.669Z,2112.00
2022-09-03T05:17:52.003Z,2248.00
2022-09-03T05:18:52.193Z,2360.00
2022-09-03T05:19:52.353Z,2400.00
2022-09-03T05:20:52.471Z,2412.00
2022-09-03T05:21:52.653Z,2420.00
2022-09-03T05:22:52.874Z,2428.00
2022-09-03T05:23:53.017Z,2460.00
2022-09-03T05:24:53.172Z,2564.00
2022-09-03T05:25:53.389Z,2612.00
2022-09-03T05:26:53.504Z,2640.00
2022-09-03T05:27:53.747Z,2736.00
2022-09-03T05:28:53.842Z,2760.00
2022-09-03T05:29:54.047Z,2796.00
2022-09-03T05:30:54.252Z,2836.00
2022-09-03T05:31:54.393Z,2948.00
2022-09-03T05:32:54.619Z,3064.00
2022-09-03T05:33:54.705Z,3192.00
2022-09-03T05:34:54.891Z,3212.00
2022-09-03T05:35:55.062Z,3260.00
2022-09-03T05:36:55.243Z,3364.00
2022-09-03T05:37:55.521Z,3476.00
2022-09-03T05:38:55.619Z,3536.00
2022-09-03T05:39:55.854Z,3556.00
2022-09-03T05:40:56.043Z,3604.00
2022-09-03T05:41:56.135Z,3696.00
2022-09-03T05:42:56.325Z,3768.00
2022-09-03T05:43:56.545Z,3900.00
2022-09-03T05:44:56.646Z,4024.00
2022-09-03T05:45:56.884Z,4100.00
2022-09-03T05:46:57.070Z,4048.00
2022-09-03T05:47:57.185Z,3932.00
2022-09-03T05:48:57.367Z,3872.00
2022-09-03T05:49:57.569Z,3872.00
2022-09-03T05:50:57.705Z,3816.00
2022-09-03T05:51:57.896Z,3824.00
2022-09-03T05:52:58.122Z,3852.00
2022-09-03T05:53:58.265Z,3880.00
2022-09-03T05:54:58.457Z,3952.00
2022-09-03T05:55:58.634Z,3932.00
2022-09-03T05:56:58.849Z,4084.00
2022-09-03T05:57:59.067Z,4260.00
2022-09-03T05:58:59.193Z,4432.00
2022-09-03T05:59:59.383Z,4628.00
2022-09-03T06:00:59.634Z,4816.00
2022-09-03T06:02:00.403Z,4908.00
2022-09-03T06:03:00.020Z,4960.00
2022-09-03T06:04:00.107Z,4968.00
2022-09-03T06:05:00.283Z,4912.00
2022-09-03T06:06:00.531Z,4904.00
2022-09-03T06:07:00.633Z,4956.00
2022-09-03T06:08:00.824Z,5092.00
2022-09-03T06:09:01.073Z,5096.00
2022-09-03T06:10:01.194Z,5080.00
2022-09-03T06:11:01.436Z,5012.00
2022-09-03T06:12:03.998Z,5144.00
2022-09-03T06:13:01.753Z,5388.00
2022-09-03T06:14:01.960Z,5504.00
2022-09-03T06:15:02.094Z,5676.00
2022-09-03T06:16:02.318Z,5760.00
2022-09-03T06:17:02.516Z,5816.00
2022-09-03T06:18:02.657Z,5876.00
2022-09-03T06:19:02.901Z,6036.00
2022-09-03T06:20:03.037Z,6144.00
2022-09-03T06:21:03.224Z,6244.00
2022-09-03T06:22:03.368Z,6372.00
2022-09-03T06:23:03.574Z,6432.00
2022-09-03T06:24:03.771Z,6360.00
2022-09-03T06:25:03.913Z,6444.00
2022-09-03T06:26:05.450Z,6480.00
2022-09-03T06:27:04.224Z,6444.00
2022-09-03T06:28:04.469Z,6408.00
2022-09-03T06:29:04.601Z,6380.00
2022-09-03T06:30:04.785Z,6160.00
2022-09-03T06:31:05.034Z,5980.00
2022-09-03T06:32:05.246Z,5896.00
2022-09-03T06:33:05.336Z,5948.00
2022-09-03T06:34:05.497Z,6056.00
2022-09-03T06:35:05.636Z,6136.00
2022-09-03T06:36:08.819Z,6192.00
2022-09-03T06:37:06.059Z,6232.00
2022-09-03T06:38:06.193Z,6364.00
2022-09-03T06:39:06.379Z,6384.00
2022-09-03T06:40:06.649Z,6360.00
2022-09-03T06:41:06.706Z,6368.00
2022-09-03T06:42:06.953Z,6392.00
2022-09-03T06:43:07.071Z,6496.00
2022-09-03T06:44:07.206Z,6516.00
2022-09-03T06:45:07.416Z,6460.00
2022-09-03T06:46:07.687Z,6668.00
2022-09-03T06:47:07.717Z,7020.00
2022-09-03T06:48:07.913Z,7300.00
2022-09-03T06:49:08.149Z,7500.00
2022-09-03T06:50:08.265Z,7688.00
2022-09-03T06:51:08.445Z,8000.00
2022-09-03T06:52:08.683Z,8304.00
2022-09-03T06:53:08.827Z,8380.00
2022-09-03T06:54:08.987Z,8164.00
2022-09-03T06:55:09.245Z,7904.00
2022-09-03T06:56:09.336Z,7896.00
2022-09-03T06:57:09.517Z,7988.00
2022-09-03T06:58:09.768Z,8360.00
2022-09-03T06:59:09.882Z,8784.00
2022-09-03T07:00:10.027Z,8992.00
2022-09-03T07:01:10.409Z,9076.00
2022-09-03T07:02:10.495Z,9052.00
2022-09-03T07:03:10.558Z,9052.00
2022-09-03T07:04:10.704Z,9040.00
2022-09-03T07:05:10.949Z,8944.00
2022-09-03T07:06:11.075Z,9224.00
2022-09-03T07:07:11.273Z,9616.00
2022-09-03T07:08:11.427Z,9804.00
2022-09-03T07:09:11.588Z,9964.00
2022-09-03T07:10:11.738Z,10136.00
2022-09-03T07:11:11.911Z,10384.00
2022-09-03T07:12:12.073Z,10668.00
2022-09-03T07:13:12.285Z,10924.00
2022-09-03T07:14:12.548Z,10996.00
2022-09-03T07:15:12.608Z,11112.00
2022-09-03T07:16:12.874Z,11132.00
2022-09-03T07:17:12.958Z,11388.00
2022-09-03T07:18:13.148Z,13516.00
2022-09-03T07:19:13.410Z,11764.00
2022-09-03T07:20:13.482Z,11632.00
2022-09-03T07:21:13.658Z,11428.00
2022-09-03T07:22:13.900Z,11556.00
2022-09-03T07:23:13.982Z,11476.00
2022-09-03T07:24:14.137Z,11856.00
2022-09-03T07:25:14.309Z,12044.00
2022-09-03T07:26:14.460Z,12508.00
2022-09-03T07:27:15.230Z,12984.00
2022-09-03T07:28:14.842Z,13176.00
2022-09-03T07:29:14.949Z,13120.00
2022-09-03T07:30:15.176Z,12872.00
2022-09-03T07:31:15.331Z,12868.00
2022-09-03T07:32:15.531Z,12496.00
2022-09-03T07:33:15.709Z,12364.00
2022-09-03T07:34:15.820Z,12420.00
2022-09-03T07:35:16.017Z,12552.00
2022-09-03T07:36:16.215Z,12544.00
2022-09-03T07:37:16.360Z,12264.00
2022-09-03T07:38:16.541Z,12176.00
2022-09-03T07:39:16.889Z,12424.00
2022-09-03T07:40:16.870Z,12868.00
2022-09-03T07:41:23.935Z,13144.00
2022-09-03T07:42:18.218Z,13128.00
2022-09-03T07:43:17.410Z,13308.00
2022-09-03T07:44:17.653Z,13540.00
2022-09-03T07:45:17.729Z,13484.00
2022-09-03T07:46:17.932Z,13516.00
2022-09-03T07:47:23.191Z,13576.00
2022-09-03T07:48:19.272Z,13520.00
2022-09-03T07:49:18.414Z,13836.00
2022-09-03T07:50:18.663Z,13772.00
2022-09-03T07:51:18.805Z,14128.00
2022-09-03T07:52:18.952Z,14052.00
2022-09-03T07:53:19.222Z,13840.00
2022-09-03T07:54:19.319Z,14044.00
2022-09-03T07:55:19.461Z,14400.00
2022-09-03T07:56:19.649Z,15440.00
2022-09-03T07:57:19.867Z,15724.00
2022-09-03T07:58:20.002Z,16468.00
2022-09-03T07:59:20.181Z,15728.00
2022-09-03T08:00:20.464Z,15620.00
2022-09-03T08:01:20.532Z,15292.00
2022-09-03T08:02:20.713Z,15332.00
2022-09-03T08:03:21.026Z,15920.00
2022-09-03T08:04:21.070Z,17216.00
2022-09-03T08:05:21.353Z,17472.00
2022-09-03T08:06:21.424Z,17184.00
2022-09-03T08:07:21.613Z,21664.00
2022-09-03T08:08:21.965Z,15088.00
2022-09-03T08:09:21.964Z,14204.00
2022-09-03T08:10:22.104Z,24640.00
2022-09-03T08:11:22.389Z,18432.00
2022-09-03T08:12:22.480Z,19968.00
2022-09-03T08:13:22.766Z,30016.00
2022-09-03T08:14:22.818Z,12860.00
2022-09-03T08:15:23.005Z,14120.00
2022-09-03T08:16:23.259Z,26336.00
2022-09-03T08:17:23.364Z,25472.00
2022-09-03T08:18:23.494Z,27232.00
2022-09-03T08:19:23.705Z,16864.00
2022-09-03T08:20:23.910Z,31648.00
2022-09-03T08:21:24.015Z,17792.00
2022-09-03T08:22:24.186Z,31712.00
2022-09-03T08:23:24.464Z,28416.00
2022-09-03T08:24:24.556Z,23808.00
2022-09-03T08:25:24.746Z,27712.00
2022-09-03T08:26:24.998Z,28736.00
2022-09-03T08:27:25.086Z,33344.00
2022-09-03T08:28:25.321Z,32224.00
2022-09-03T08:29:25.529Z,25760.00
2022-09-03T08:30:25.619Z,32448.00
2022-09-03T08:31:25.822Z,31840.00
2022-09-03T08:32:26.041Z,28960.00
2022-09-03T08:33:26.165Z,32064.00
2022-09-03T08:34:26.297Z,32288.00
2022-09-03T08:35:26.535Z,32672.00
2022-09-03T08:36:26.688Z,31360.00
2022-09-03T08:37:26.848Z,22272.00
2022-09-03T08:38:26.998Z,28864.00
2022-09-03T08:39:27.269Z,28480.00
2022-09-03T08:40:27.349Z,32928.00
2022-09-03T08:41:27.529Z,35808.00
2022-09-03T08:42:27.820Z,32576.00
2022-09-03T08:43:27.870Z,30624.00
2022-09-03T08:44:28.030Z,30720.00
2022-09-03T08:45:28.303Z,31488.00
2022-09-03T08:46:28.422Z,32032.00
2022-09-03T08:47:28.590Z,31584.00
2022-09-03T08:48:28.963Z,33024.00
2022-09-03T08:49:28.952Z,32576.00
2022-09-03T08:50:29.112Z,32480.00
2022-09-03T08:51:29.332Z,34112.00
2022-09-03T08:52:29.462Z,36608.00
2022-09-03T08:53:29.594Z,38176.00
2022-09-03T08:54:29.812Z,37088.00
2022-09-03T08:55:30.006Z,37632.00
2022-09-03T08:56:30.124Z,37280.00
2022-09-03T08:57:30.312Z,35200.00
2022-09-03T08:58:30.553Z,34432.00
2022-09-03T08:59:33.023Z,36224.00
2022-09-03T09:00:30.853Z,36768.00
2022-09-03T09:01:31.133Z,35808.00
2022-09-03T09:02:31.308Z,36960.00
2022-09-03T09:03:31.435Z,38240.00
2022-09-03T09:04:31.658Z,38208.00
2022-09-03T09:05:31.756Z,39136.00
2022-09-03T09:06:31.926Z,38944.00
2022-09-03T09:07:32.239Z,35744.00
2022-09-03T09:08:32.306Z,34624.00
2022-09-03T09:09:32.467Z,34400.00
2022-09-03T09:10:32.706Z,34528.00
2022-09-03T09:11:32.845Z,33728.00
2022-09-03T09:12:41.156Z,35264.00
2022-09-03T09:13:34.189Z,35840.00
2022-09-03T09:14:33.337Z,36864.00
2022-09-03T09:15:33.584Z,37824.00
2022-09-03T09:16:33.765Z,37824.00
2022-09-03T09:17:33.887Z,37824.00
2022-09-03T09:18:34.060Z,35712.00
2022-09-03T09:19:34.318Z,34752.00
2022-09-03T09:20:34.410Z,33120.00
2022-09-03T09:21:34.607Z,33664.00
2022-09-03T09:22:34.852Z,35360.00
2022-09-03T09:23:34.949Z,37280.00
2022-09-03T09:24:35.122Z,39104.00
2022-09-03T09:25:35.380Z,39136.00
2022-09-03T09:26:35.504Z,41920.00
2022-09-03T09:27:35.662Z,42400.00
2022-09-03T09:28:35.892Z,41920.00
2022-09-03T09:29:36.009Z,41376.00
2022-09-03T09:30:36.141Z,40128.00
2022-09-03T09:31:36.430Z,41056.00
2022-09-03T09:32:36.542Z,43552.00
2022-09-03T09:33:36.671Z,44864.00
2022-09-03T09:34:36.844Z,44352.00
2022-09-03T09:35:37.023Z,44608.00
2022-09-03T09:36:37.207Z,42816.00
2022-09-03T09:37:37.454Z,43424.00
2022-09-03T09:38:37.677Z,42752.00
2022-09-03T09:39:37.755Z,43840.00
2022-09-03T09:40:41.366Z,45856.00
2022-09-03T09:41:39.178Z,46112.00
2022-09-03T09:42:38.255Z,40736.00
2022-09-03T09:43:38.435Z,37184.00
2022-09-03T09:44:38.688Z,37984.00
2022-09-03T09:45:38.803Z,36576.00
2022-09-03T09:46:39.061Z,38656.00
2022-09-03T09:47:39.203Z,37984.00
2022-09-03T09:48:39.379Z,36704.00
2022-09-03T09:49:39.506Z,39584.00
2022-09-03T09:50:39.686Z,43296.00
2022-09-03T09:51:39.956Z,49760.00
2022-09-03T09:52:40.046Z,53376.00
2022-09-03T09:53:40.281Z,52544.00
2022-09-03T09:54:40.406Z,50272.00
2022-09-03T09:55:40.598Z,46752.00
2022-09-03T09:56:40.869Z,48352.00
2022-09-03T09:57:40.959Z,50368.00
2022-09-03T09:58:41.141Z,51776.00
2022-09-03T09:59:41.409Z,49888.00
2022-09-03T10:00:41.530Z,49248.00
2022-09-03T10:01:41.784Z,49792.00
2022-09-03T10:02:42.015Z,49920.00
2022-09-03T10:03:42.054Z,47712.00
2022-09-03T10:04:42.240Z,49120.00
2022-09-03T10:05:42.542Z,48896.00
2022-09-03T10:06:42.628Z,48064.00
2022-09-03T10:07:42.751Z,47168.00
2022-09-03T10:08:42.999Z,47328.00
2022-09-03T10:09:43.133Z,48128.00
2022-09-03T10:10:43.263Z,45888.00
2022-09-03T10:11:43.460Z,27840.00
2022-09-03T10:12:43.667Z,10276.00
2022-09-03T10:13:43.793Z,4252.00
2022-09-03T10:14:43.953Z,5892.00
2022-09-03T10:15:44.216Z,5468.00
2022-09-03T10:16:44.321Z,5524.00
2022-09-03T10:17:44.502Z,5836.00
2022-09-03T10:18:44.736Z,6056.00
2022-09-03T10:19:44.822Z,6564.00
2022-09-03T10:20:44.994Z,6424.00
2022-09-03T10:21:45.289Z,6864.00
2022-09-03T10:22:56.442Z,7984.00
2022-09-03T10:23:47.554Z,7832.00
2022-09-03T10:24:45.784Z,8752.00
2022-09-03T10:25:46.027Z,9952.00
2022-09-03T10:26:46.080Z,11388.00
2022-09-03T10:27:46.234Z,9088.00
2022-09-03T10:28:46.432Z,7908.00
2022-09-03T10:29:46.555Z,6212.00
2022-09-03T10:30:46.788Z,6940.00
2022-09-03T10:31:46.990Z,7480.00
2022-09-03T10:32:48.613Z,9196.00
2022-09-03T10:33:47.246Z,9536.00
2022-09-03T10:34:47.510Z,10480.00
2022-09-03T10:35:47.605Z,10192.00
2022-09-03T10:36:47.804Z,8696.00
2022-09-03T10:37:48.028Z,9796.00
2022-09-03T10:38:48.139Z,11404.00
2022-09-03T10:39:52.182Z,11108.00
2022-09-03T10:40:48.595Z,10232.00
2022-09-03T10:41:48.674Z,9080.00
2022-09-03T10:42:48.837Z,9772.00
2022-09-03T10:43:49.058Z,11140.00
2022-09-03T10:44:49.263Z,12240.00
2022-09-03T10:45:49.439Z,11380.00
2022-09-03T10:46:49.601Z,10556.00
2022-09-03T10:47:49.806Z,10992.00
2022-09-03T10:48:49.927Z,12704.00
2022-09-03T10:49:50.101Z,10316.00
2022-09-03T10:50:50.368Z,9492.00
2022-09-03T10:51:50.443Z,9140.00
2022-09-03T10:52:50.619Z,9628.00
2022-09-03T10:53:50.881Z,10228.00
2022-09-03T10:54:50.978Z,11152.00
2022-09-03T10:55:51.147Z,12352.00
2022-09-03T10:56:51.392Z,13236.00
2022-09-03T10:57:51.479Z,12100.00
2022-09-03T10:58:51.639Z,9912.00
2022-09-03T10:59:51.850Z,9648.00
2022-09-03T11:00:52.050Z,10280.00
2022-09-03T11:01:52.213Z,9176.00
2022-09-03T11:02:52.382Z,9952.00
2022-09-03T11:03:52.574Z,10124.00
2022-09-03T11:04:52.688Z,10752.00
2022-09-03T11:05:52.852Z,11464.00
2022-09-03T11:06:53.102Z,12112.00
2022-09-03T11:07:53.171Z,13036.00
2022-09-03T11:08:53.340Z,12736.00
2022-09-03T11:09:53.564Z,11760.00
2022-09-03T11:10:53.683Z,11632.00
2022-09-03T11:11:53.822Z,11328.00
2022-09-03T11:12:54.073Z,11216.00
2022-09-03T11:13:54.220Z,10152.00
2022-09-03T11:14:54.342Z,10216.00
2022-09-03T11:15:54.716Z,10476.00
2022-09-03T11:16:54.753Z,9892.00
2022-09-03T11:17:54.883Z,10860.00
2022-09-03T11:18:55.053Z,12504.00
2022-09-03T11:19:55.270Z,12504.00
2022-09-03T11:20:55.422Z,12252.00
2022-09-03T11:21:55.574Z,11796.00
2022-09-03T11:22:55.822Z,10832.00
2022-09-03T11:23:55.894Z,10748.00
2022-09-03T11:24:56.062Z,10128.00
2022-09-03T11:25:56.355Z,9636.00
2022-09-03T11:26:56.537Z,9380.00
2022-09-03T11:27:56.941Z,9072.00
2022-09-03T11:28:56.886Z,8700.00
2022-09-03T11:29:56.976Z,8556.00
2022-09-03T11:30:57.239Z,8808.00
2022-09-03T11:31:57.429Z,8436.00
2022-09-03T11:32:57.544Z,7784.00
2022-09-03T11:33:57.665Z,6468.00
2022-09-03T11:34:57.889Z,5456.00
2022-09-03T11:35:58.077Z,6312.00
2022-09-03T11:36:58.196Z,5700.00
2022-09-03T11:37:58.376Z,5364.00
2022-09-03T11:38:58.612Z,5864.00
2022-09-03T11:39:58.848Z,6040.00
2022-09-03T11:40:58.936Z,6348.00
2022-09-03T11:41:59.168Z,6116.00
2022-09-03T11:42:59.257Z,6360.00
2022-09-03T11:44:04.397Z,6484.00
2022-09-03T11:45:00.717Z,6436.00
2022-09-03T11:45:59.882Z,6432.00
2022-09-03T11:46:59.967Z,6568.00
2022-09-03T11:48:00.264Z,6676.00
2022-09-03T11:49:00.352Z,6128.00
2022-09-03T11:50:00.526Z,5728.00
2022-09-03T11:51:00.807Z,6056.00
2022-09-03T11:52:00.899Z,6104.00
2022-09-03T11:53:01.056Z,6024.00
2022-09-03T11:54:01.238Z,6460.00
2022-09-03T11:55:01.489Z,7048.00
2022-09-03T11:56:01.596Z,6612.00
2022-09-03T11:57:01.746Z,6016.00
2022-09-03T11:58:01.989Z,5704.00
2022-09-03T11:59:02.091Z,5488.00
2022-09-03T12:00:02.268Z,5784.00
2022-09-03T12:01:02.571Z,5180.00
2022-09-03T12:02:02.672Z,4920.00
2022-09-03T12:03:02.826Z,5056.00
2022-09-03T12:04:03.070Z,5484.00
2022-09-03T12:05:03.231Z,5184.00
2022-09-03T12:06:03.370Z,5504.00
2022-09-03T12:07:03.587Z,5420.00
2022-09-03T12:08:08.678Z,5312.00
2022-09-03T12:09:04.851Z,5240.00
2022-09-03T12:10:04.069Z,5268.00
2022-09-03T12:11:04.274Z,5320.00
2022-09-03T12:12:05.692Z,5388.00
2022-09-03T12:13:04.551Z,5360.00
2022-09-03T12:14:04.801Z,5116.00
2022-09-03T12:15:04.941Z,4864.00
2022-09-03T12:16:05.141Z,4772.00
2022-09-03T12:17:05.340Z,4748.00
2022-09-03T12:18:05.421Z,4704.00
2022-09-03T12:19:05.603Z,4660.00
2022-09-03T12:20:05.880Z,4648.00
2022-09-03T12:21:06.001Z,4644.00
2022-09-03T12:22:06.122Z,4696.00
2022-09-03T12:23:06.393Z,4908.00
2022-09-03T12:24:06.498Z,5124.00
2022-09-03T12:25:06.672Z,5420.00